Hunter, Texas
Current Conditions -  °F | °C
As of 3:51 AM on Sunday 21 Dec 2014 (Local Time) from KBAZ Reporting Station
Overcast Overcast  
Wind Chill: 52°   Ceiling: 2000
Heat Index: 52°   Visibility: 8mi
Dew Point: 48°   Wind: 7mph
Humidity: 86%   Direction: 130°SE
Pressure: 30.1"   Gusts: NA
Location:  29.7667°N, 98.1818°W
Report Text: KBAZ 210951Z AUTO 13006KT 8SM OVC020 11/09 A3010 RMK AO2 SLP191 T01110089
Loading
Personal Weather Stations






























Interactive Weather Map New forecast layout! Learn more

10-Day Weather Forecast

Advertisements
Track Severe Weather on mobile